Terminal Aerodrome Forecast
Issued by NWS

Home | Current Version | Previous Version | Graphics & Text | Print | Product List | Glossary On
Versions: 1 2 3 4 5 6 7 8 9 10 11 12 13 14
000
FTUS43 KICT 070500
TAFCNU
TAF
KCNU 070520Z 0706/0806 18008KT P6SM SCT150
     FM071900 21015G21KT P6SM SCT150
     FM080300 19009KT P6SM SCT200=

USA.gov is the U.S. government's official web portal to all federal, state and local government web resources and services.